Time;durP1;ratioP1;P1;durP2;ratioP2;P2;SDS_P1;SDS_P2;PMS_P1;PMS_P2;Temp;Humidity;BMP_temperature;BMP_pressure;BME280_temperature;BME280_humidity;BME280_pressure;Samples;Min_cycle;Max_cycle;Signal;HPM_P1;HPM_P2
2023/08/22 00:01:04;;;;;;;31.48;25.30;;;20.90;99.90;;;;;;5094565;28;20020;-67
2023/08/22 00:03:30;;;;;;;33.90;26.15;;;20.80;99.90;;;;;;5095164;28;20044;-67
2023/08/22 00:05:56;;;;;;;30.67;25.02;;;20.70;99.90;;;;;;5094671;28;20121;-67
2023/08/22 00:08:22;;;;;;;32.42;24.77;;;20.70;99.90;;;;;;5059904;28;20084;-67
2023/08/22 00:10:48;;;;;;;29.95;25.40;;;20.60;99.90;;;;;;5076356;28;20040;-66
2023/08/22 00:13:13;;;;;;;29.90;23.13;;;20.60;99.90;;;;;;5076603;28;20032;-67
2023/08/22 00:15:39;;;;;;;31.77;23.70;;;20.60;99.90;;;;;;5094531;28;20057;-67
2023/08/22 00:18:07;;;;;;;34.05;28.38;;;20.60;99.90;;;;;;5094669;28;20032;-67
2023/08/22 00:20:35;;;;;;;40.63;28.17;;;20.50;99.90;;;;;;5094822;28;20394;-67
2023/08/22 00:23:01;;;;;;;32.90;27.13;;;20.50;99.90;;;;;;5094257;28;20404;-67
2023/08/22 00:25:26;;;;;;;48.53;39.33;;;20.50;99.90;;;;;;5094665;28;20024;-67
2023/08/22 00:27:52;;;;;;;37.28;30.23;;;20.50;99.90;;;;;;5094840;28;20034;-67
2023/08/22 00:30:18;;;;;;;41.97;32.92;;;20.50;99.90;;;;;;5076043;28;20374;-66
2023/08/22 00:32:44;;;;;;;45.35;37.97;;;20.40;99.90;;;;;;5094543;28;20030;-67
2023/08/22 00:35:11;;;;;;;55.72;45.38;;;20.40;99.90;;;;;;5076618;28;20415;-67
2023/08/22 00:37:37;;;;;;;53.15;44.15;;;20.50;99.90;;;;;;5093956;28;20082;-67
2023/08/22 00:40:05;;;;;;;53.25;44.30;;;20.50;99.90;;;;;;5094328;28;20782;-67
2023/08/22 00:42:31;;;;;;;56.42;46.30;;;20.60;99.90;;;;;;5059722;28;20077;-66
2023/08/22 00:44:58;;;;;;;73.20;51.22;;;20.50;99.90;;;;;;5075986;28;20016;-67
2023/08/22 00:47:24;;;;;;;57.10;48.25;;;20.40;99.90;;;;;;5076323;28;20039;-67
2023/08/22 00:49:51;;;;;;;55.90;42.85;;;20.40;99.90;;;;;;5075605;28;20624;-67
2023/08/22 00:52:17;;;;;;;52.33;40.17;;;20.20;99.90;;;;;;5075764;28;20043;-67
2023/08/22 00:54:44;;;;;;;50.72;39.97;;;20.20;99.90;;;;;;5075979;28;20040;-66
2023/08/22 00:57:10;;;;;;;47.17;38.08;;;20.20;99.90;;;;;;5075857;28;20087;-67
2023/08/22 00:59:38;;;;;;;45.53;34.28;;;20.20;99.90;;;;;;5094043;28;20520;-67
2023/08/22 01:02:04;;;;;;;36.22;31.77;;;20.10;99.90;;;;;;5093979;28;20033;-66
2023/08/22 01:04:30;;;;;;;43.33;31.55;;;20.10;99.90;;;;;;5094023;28;20078;-67
2023/08/22 01:07:15;;;;;;;39.53;31.98;;;20.20;99.90;;;;;;5075629;28;20024;-67
2023/08/22 01:10:02;;;;;;;38.30;30.67;;;20.10;99.90;;;;;;5094275;28;20024;-67
2023/08/22 01:12:53;;;;;;;40.15;29.48;;;20.10;99.90;;;;;;5075723;28;20032;-66
2023/08/22 01:15:28;;;;;;;36.83;29.65;;;20.20;99.90;;;;;;5059130;28;20109;-67
2023/08/22 01:17:58;;;;;;;32.35;26.83;;;20.10;99.90;;;;;;5075801;28;20477;-67
2023/08/22 01:20:27;;;;;;;37.85;28.42;;;20.10;99.90;;;;;;5075822;28;20107;-67
2023/08/22 01:22:54;;;;;;;39.15;31.00;;;20.00;99.90;;;;;;5075687;28;20024;-66
2023/08/22 01:25:21;;;;;;;39.15;29.00;;;20.00;99.90;;;;;;5093999;28;20016;-67
2023/08/22 01:27:56;;;;;;;34.15;26.00;;;20.10;99.90;;;;;;5075481;28;20024;-66
2023/08/22 01:30:31;;;;;;;29.67;24.08;;;20.20;99.90;;;;;;5094021;28;20029;-67
2023/08/22 01:33:11;;;;;;;29.88;23.95;;;20.10;99.90;;;;;;5075522;28;20035;-66
2023/08/22 01:35:39;;;;;;;27.35;23.23;;;20.00;99.90;;;;;;5093715;28;20028;-66
2023/08/22 01:38:06;;;;;;;29.08;23.38;;;19.90;99.90;;;;;;5075516;28;20515;-67
2023/08/22 01:40:33;;;;;;;31.52;24.00;;;19.90;99.90;;;;;;5075536;28;20115;-66
2023/08/22 01:43:00;;;;;;;34.67;25.33;;;19.90;99.90;;;;;;5093961;28;20032;-67
2023/08/22 01:45:26;;;;;;;32.17;25.40;;;19.80;99.90;;;;;;5093731;28;20024;-67
2023/08/22 01:47:52;;;;;;;27.63;23.65;;;19.80;99.90;;;;;;5075121;28;20041;-67
2023/08/22 01:50:18;;;;;;;26.95;23.60;;;19.80;99.90;;;;;;5093702;28;20119;-66
2023/08/22 01:52:44;;;;;;;27.55;22.98;;;19.80;99.90;;;;;;5075110;28;20024;-66
2023/08/22 01:55:12;;;;;;;32.58;24.25;;;19.70;99.90;;;;;;5075393;28;20017;-66
2023/08/22 01:57:38;;;;;;;32.50;25.05;;;19.60;99.90;;;;;;5093707;28;20043;-66
2023/08/22 02:00:04;;;;;;;28.88;24.85;;;19.60;99.90;;;;;;5075112;28;20032;-66
2023/08/22 02:02:38;;;;;;;30.40;23.95;;;19.60;99.90;;;;;;5093455;28;20111;-66
2023/08/22 02:05:05;;;;;;;32.42;24.35;;;19.60;99.90;;;;;;5097128;28;20422;-66
2023/08/22 02:07:33;;;;;;;32.85;25.05;;;19.50;99.90;;;;;;5079084;28;20024;-67
2023/08/22 02:10:00;;;;;;;25.65;22.70;;;19.50;99.90;;;;;;5078699;28;20431;-66
2023/08/22 02:12:26;;;;;;;27.00;23.40;;;19.50;99.90;;;;;;5078975;28;20089;-66
2023/08/22 02:14:53;;;;;;;28.73;23.45;;;19.50;99.90;;;;;;5078831;28;20082;-66
2023/08/22 02:17:20;;;;;;;26.15;23.30;;;19.50;99.90;;;;;;5096873;28;20085;-66
2023/08/22 02:19:46;;;;;;;28.25;23.95;;;19.50;99.90;;;;;;5096859;28;20027;-66
2023/08/22 02:22:12;;;;;;;30.13;24.33;;;19.40;99.90;;;;;;5097000;28;20107;-66
2023/08/22 02:24:38;;;;;;;33.67;24.75;;;19.50;99.90;;;;;;5096782;28;20031;-66
2023/08/22 02:27:04;;;;;;;29.88;23.60;;;19.40;99.90;;;;;;5078632;28;20040;-66
2023/08/22 02:29:30;;;;;;;32.63;25.30;;;19.40;99.90;;;;;;5096854;28;20065;-66
2023/08/22 02:31:56;;;;;;;31.15;24.92;;;19.40;99.90;;;;;;5096722;28;20163;-66
2023/08/22 02:34:23;;;;;;;29.85;24.80;;;19.40;99.90;;;;;;5096908;28;20111;-66
2023/08/22 02:36:49;;;;;;;31.42;23.35;;;19.40;99.90;;;;;;5078063;28;20028;-66
2023/08/22 02:39:15;;;;;;;31.30;25.85;;;19.40;99.90;;;;;;5096556;28;20038;-66
2023/08/22 02:41:41;;;;;;;31.00;25.55;;;19.30;99.90;;;;;;5096486;28;20020;-66
2023/08/22 02:44:08;;;;;;;34.85;24.88;;;19.40;99.90;;;;;;5078229;28;20031;-66
2023/08/22 02:46:34;;;;;;;39.42;27.40;;;19.40;99.90;;;;;;5078281;28;20032;-66
2023/08/22 02:49:00;;;;;;;32.83;25.98;;;19.40;99.90;;;;;;5078051;28;20416;-66
2023/08/22 02:51:27;;;;;;;34.45;27.83;;;19.30;99.90;;;;;;5078248;28;20024;-66
2023/08/22 02:53:53;;;;;;;33.53;26.95;;;19.30;99.90;;;;;;5096004;28;20095;-66
2023/08/22 02:56:19;;;;;;;31.17;25.92;;;19.30;99.90;;;;;;5096062;28;20131;-66
2023/08/22 02:58:46;;;;;;;35.33;26.38;;;19.20;99.90;;;;;;5096059;28;20059;-66
2023/08/22 03:01:12;;;;;;;33.03;25.98;;;19.30;99.90;;;;;;5077949;28;20024;-66
2023/08/22 03:03:43;;;;;;;37.08;26.45;;;19.20;99.90;;;;;;5096097;28;20020;-66
2023/08/22 03:06:09;;;;;;;34.08;23.85;;;19.20;99.90;;;;;;5077773;28;20056;-66
2023/08/22 03:08:36;;;;;;;29.05;24.10;;;19.20;99.90;;;;;;5077737;28;20456;-66
2023/08/22 03:11:03;;;;;;;33.45;24.55;;;19.20;99.90;;;;;;5077519;28;20028;-66
2023/08/22 03:13:30;;;;;;;29.88;23.73;;;19.20;99.90;;;;;;5077606;28;20032;-66
2023/08/22 03:15:58;;;;;;;34.58;24.98;;;19.20;99.90;;;;;;5077732;28;20031;-66
2023/08/22 03:18:25;;;;;;;30.85;24.63;;;19.20;99.90;;;;;;5096080;28;20020;-66
2023/08/22 03:20:56;;;;;;;36.17;25.58;;;19.30;99.90;;;;;;5077348;28;20385;-66
2023/08/22 03:23:26;;;;;;;33.67;25.02;;;19.30;99.90;;;;;;5077642;28;20063;-66
2023/08/22 03:25:59;;;;;;;29.45;25.30;;;19.30;99.90;;;;;;5095753;28;20505;-66
2023/08/22 03:28:26;;;;;;;29.75;25.55;;;19.30;99.90;;;;;;5077327;28;20065;-66
2023/08/22 03:30:57;;;;;;;34.88;25.73;;;19.30;99.90;;;;;;5077309;28;20424;-66
2023/08/22 03:33:25;;;;;;;28.98;24.85;;;19.30;99.90;;;;;;5077431;28;20085;-66
2023/08/22 03:35:52;;;;;;;29.90;24.42;;;19.30;99.90;;;;;;5076800;28;20036;-66
2023/08/22 03:38:18;;;;;;;33.13;25.48;;;19.20;99.90;;;;;;5077247;28;20035;-66
2023/08/22 03:40:44;;;;;;;31.45;25.70;;;19.20;99.90;;;;;;5095223;28;20028;-66
2023/08/22 03:43:10;;;;;;;33.10;24.98;;;19.20;99.90;;;;;;5095584;28;20416;-66
2023/08/22 03:45:37;;;;;;;32.83;26.08;;;19.20;99.90;;;;;;5077214;28;20028;-66
2023/08/22 03:48:06;;;;;;;30.92;25.33;;;19.20;99.90;;;;;;5076833;28;20539;-66
2023/08/22 03:50:33;;;;;;;28.85;24.77;;;19.20;99.90;;;;;;5076839;28;20028;-66
2023/08/22 03:52:59;;;;;;;32.63;26.58;;;19.10;99.90;;;;;;5076850;28;20062;-66
2023/08/22 03:55:26;;;;;;;32.55;26.60;;;19.10;99.90;;;;;;5076541;28;20048;-66
2023/08/22 03:57:52;;;;;;;35.83;27.83;;;19.10;99.90;;;;;;5077227;28;20056;-66
2023/08/22 04:00:18;;;;;;;34.30;27.58;;;19.20;99.90;;;;;;5062879;28;20138;-65
2023/08/22 04:02:46;;;;;;;34.97;27.88;;;19.10;99.90;;;;;;5016975;28;20037;-66
2023/08/22 04:05:12;;;;;;;33.55;27.23;;;19.10;99.90;;;;;;5048980;28;20394;-66
2023/08/22 04:07:38;;;;;;;31.17;26.13;;;19.20;99.90;;;;;;5049719;28;20043;-66
2023/08/22 04:10:05;;;;;;;30.63;26.42;;;19.10;99.90;;;;;;5011451;28;20504;-66
2023/08/22 04:12:31;;;;;;;35.40;27.35;;;19.10;99.90;;;;;;5024739;28;20041;-66
2023/08/22 04:14:57;;;;;;;33.42;27.23;;;19.20;99.90;;;;;;5007874;28;20068;-65
2023/08/22 04:17:23;;;;;;;32.80;25.88;;;19.10;99.90;;;;;;5067340;28;20087;-66
2023/08/22 04:19:50;;;;;;;29.42;25.27;;;19.20;99.90;;;;;;5048283;28;20340;-66
2023/08/22 04:22:16;;;;;;;37.55;26.58;;;19.20;99.90;;;;;;5049864;28;20048;-66
2023/08/22 04:24:42;;;;;;;34.80;25.92;;;19.10;99.90;;;;;;5046288;28;20045;-66
2023/08/22 04:27:08;;;;;;;35.63;27.20;;;19.20;99.90;;;;;;5053503;28;20363;-65
2023/08/22 04:29:34;;;;;;;29.10;24.13;;;19.20;99.90;;;;;;5006266;28;20057;-65
2023/08/22 04:32:03;;;;;;;35.70;26.05;;;19.20;99.90;;;;;;5002440;28;20063;-65
2023/08/22 04:34:29;;;;;;;35.22;25.83;;;19.20;99.90;;;;;;4992766;28;20060;-66
2023/08/22 04:36:58;;;;;;;32.10;25.88;;;19.30;99.90;;;;;;5024290;28;20118;-66
2023/08/22 04:39:25;;;;;;;28.67;25.58;;;19.30;99.90;;;;;;5025821;28;21279;-66
2023/08/22 04:42:00;;;;;;;31.83;25.83;;;19.40;99.90;;;;;;5001365;28;20137;-66
2023/08/22 04:44:29;;;;;;;32.80;25.48;;;19.40;99.90;;;;;;4997250;28;20035;-66
2023/08/22 04:46:55;;;;;;;31.30;25.15;;;19.40;99.90;;;;;;4984763;28;20551;-65
2023/08/22 04:49:21;;;;;;;35.20;25.98;;;19.50;99.90;;;;;;4997187;28;20412;-64
2023/08/22 04:51:47;;;;;;;35.65;26.98;;;19.60;99.90;;;;;;5015240;28;20547;-66
2023/08/22 04:54:14;;;;;;;36.30;27.33;;;19.60;99.90;;;;;;5010779;28;20045;-66
2023/08/22 04:56:40;;;;;;;33.22;26.88;;;19.70;99.90;;;;;;5021768;28;20153;-66
2023/08/22 04:59:06;;;;;;;32.10;27.30;;;19.70;99.90;;;;;;5023612;28;20136;-66
2023/08/22 05:01:32;;;;;;;43.20;28.35;;;19.70;99.90;;;;;;5001191;28;20396;-66
2023/08/22 05:03:58;;;;;;;43.00;28.75;;;19.90;99.90;;;;;;4978155;28;20109;-66
2023/08/22 05:06:24;;;;;;;40.15;28.48;;;20.00;99.90;;;;;;4993569;28;20498;-66
2023/08/22 05:08:52;;;;;;;40.80;28.67;;;20.10;99.90;;;;;;4998231;28;20087;-66
2023/08/22 05:11:18;;;;;;;34.92;27.80;;;20.30;99.90;;;;;;4991790;28;20076;-66
2023/08/22 05:13:45;;;;;;;39.90;28.65;;;20.30;99.90;;;;;;4991236;28;20045;-66
2023/08/22 05:16:11;;;;;;;40.20;26.58;;;20.40;99.90;;;;;;5037012;28;20069;-66
2023/08/22 05:18:38;;;;;;;36.92;29.25;;;20.50;99.90;;;;;;5036179;28;20529;-67
2023/08/22 05:21:04;;;;;;;33.08;27.38;;;20.60;99.90;;;;;;5008438;28;20327;-66
2023/08/22 05:23:31;;;;;;;39.80;28.25;;;20.60;99.90;;;;;;5033802;28;20036;-66
2023/08/22 05:25:57;;;;;;;41.63;28.10;;;20.70;99.90;;;;;;5049959;28;20175;-65
2023/08/22 05:28:23;;;;;;;39.22;28.05;;;20.90;99.90;;;;;;4995697;28;20049;-66
2023/08/22 05:30:49;;;;;;;39.35;29.02;;;21.00;99.90;;;;;;5021265;28;20069;-66
2023/08/22 05:33:15;;;;;;;45.17;30.58;;;21.10;99.90;;;;;;4961960;28;20140;-66
2023/08/22 05:35:42;;;;;;;39.45;29.60;;;21.20;99.90;;;;;;5002599;28;20049;-66
2023/08/22 05:38:08;;;;;;;38.90;28.65;;;21.30;99.90;;;;;;4995359;28;20073;-66
2023/08/22 05:40:34;;;;;;;39.60;29.27;;;21.30;99.90;;;;;;4997203;28;20041;-66
2023/08/22 05:43:00;;;;;;;50.13;31.02;;;21.40;99.90;;;;;;4976052;28;20050;-66
2023/08/22 05:45:27;;;;;;;50.70;32.00;;;21.50;99.90;;;;;;4977280;28;20066;-66
2023/08/22 05:47:53;;;;;;;38.95;29.73;;;21.60;99.90;;;;;;4990683;28;20503;-66
2023/08/22 05:50:20;;;;;;;41.08;30.63;;;21.70;99.90;;;;;;4999427;28;20053;-66
2023/08/22 05:52:46;;;;;;;38.10;29.42;;;21.70;99.90;;;;;;5021619;28;20049;-66
2023/08/22 05:55:13;;;;;;;47.53;30.77;;;21.80;99.90;;;;;;5052122;28;20041;-65
2023/08/22 05:57:40;;;;;;;46.15;31.42;;;21.90;99.90;;;;;;5014229;28;20060;-66
2023/08/22 06:00:08;;;;;;;44.47;29.33;;;22.10;99.90;;;;;;4969058;28;20046;-66
2023/08/22 06:02:43;;;;;;;43.72;32.08;;;22.20;99.90;;;;;;4978881;28;20050;-66
2023/08/22 06:05:09;;;;;;;43.38;31.90;;;22.40;99.90;;;;;;4973230;28;20045;-66
2023/08/22 06:07:35;;;;;;;44.45;32.03;;;22.50;99.90;;;;;;4951221;28;20091;-66
2023/08/22 06:10:02;;;;;;;66.20;35.78;;;22.60;99.90;;;;;;5007245;28;20441;-66
2023/08/22 06:12:28;;;;;;;80.30;37.85;;;22.80;99.90;;;;;;4998728;28;20095;-66
2023/08/22 06:14:54;;;;;;;56.97;32.38;;;23.00;99.90;;;;;;4986378;28;20043;-66
2023/08/22 06:17:20;;;;;;;49.75;31.63;;;23.10;99.90;;;;;;4989899;28;20071;-66
2023/08/22 06:19:48;;;;;;;112.53;44.55;;;23.30;99.90;;;;;;4951064;28;20493;-66
2023/08/22 06:22:14;;;;;;;105.38;42.33;;;23.30;99.90;;;;;;4886620;28;20571;-66
2023/08/22 06:24:40;;;;;;;50.80;32.63;;;23.50;99.90;;;;;;4816283;29;20532;-66
2023/08/22 06:27:07;;;;;;;43.53;31.50;;;23.60;99.90;;;;;;4859006;29;21891;-66
2023/08/22 06:29:33;;;;;;;58.20;32.00;;;23.80;99.90;;;;;;4934266;28;22943;-66
2023/08/22 06:32:01;;;;;;;101.65;41.85;;;24.00;99.90;;;;;;4974723;28;23644;-66
2023/08/22 06:34:31;;;;;;;145.32;47.53;;;24.10;99.90;;;;;;5010068;28;24776;-66
2023/08/22 06:36:57;;;;;;;88.45;39.22;;;24.40;99.90;;;;;;4968731;28;31088;-66
2023/08/22 06:39:23;;;;;;;54.75;31.25;;;24.60;99.90;;;;;;4984166;28;32694;-66
2023/08/22 06:41:49;;;;;;;41.92;28.05;;;24.80;99.90;;;;;;4974903;28;34210;-66
2023/08/22 06:44:22;;;;;;;43.97;29.55;;;25.00;99.90;;;;;;4982178;28;35433;-66
2023/08/22 06:46:51;;;;;;;63.72;32.95;;;25.00;99.90;;;;;;4932301;28;37244;-66
2023/08/22 06:51:42;;;;;;;34.85;27.33;;;25.30;99.90;;;;;;4985112;28;42356;-66
2023/08/22 06:54:08;;;;;;;48.10;28.55;;;25.50;99.90;;;;;;4929887;28;31922;-67
2023/08/22 06:56:34;;;;;;;31.85;25.38;;;25.90;99.90;;;;;;4939902;28;24934;-66
2023/08/22 06:59:00;;;;;;;30.10;23.83;;;26.10;99.90;;;;;;4965904;28;24708;-66
2023/08/22 07:01:26;;;;;;;33.33;25.60;;;26.30;99.90;;;;;;5016302;28;24727;-66
2023/08/22 07:03:52;;;;;;;34.38;25.20;;;26.30;99.90;;;;;;5016002;28;24854;-66
2023/08/22 07:06:22;;;;;;;31.83;23.55;;;26.30;99.90;;;;;;5020298;28;33613;-66
2023/08/22 07:08:49;;;;;;;;;;;26.70;99.90;;;;;;4962892;28;24991;-67
2023/08/22 07:11:15;;;;;;;30.92;23.45;;;26.70;99.90;;;;;;4961147;28;24963;-67
2023/08/22 07:13:41;;;;;;;40.30;25.08;;;27.10;99.90;;;;;;5001568;28;25365;-67
2023/08/22 07:16:07;;;;;;;28.23;21.77;;;27.30;99.90;;;;;;5024628;28;24900;-67
2023/08/22 07:18:33;;;;;;;41.20;23.42;;;27.60;99.90;;;;;;5021797;28;24608;-67
2023/08/22 07:21:03;;;;;;;33.22;24.00;;;28.10;99.70;;;;;;5002600;28;24982;-67
2023/08/22 07:23:29;;;;;;;31.58;21.95;;;28.30;97.30;;;;;;4979602;28;24685;-67
2023/08/22 07:25:55;;;;;;;33.38;23.33;;;28.70;97.30;;;;;;4988633;28;35278;-67
2023/08/22 07:28:21;;;;;;;35.70;23.75;;;28.90;95.30;;;;;;4993744;28;24782;-66
2023/08/22 07:30:51;;;;;;;30.10;22.70;;;29.10;94.40;;;;;;4929064;28;24769;-67
2023/08/22 07:33:17;;;;;;;58.33;28.25;;;29.30;93.70;;;;;;4974758;28;24488;-67
2023/08/22 07:35:47;;;;;;;44.20;24.13;;;29.40;93.80;;;;;;4674741;28;23428;-67
2023/08/22 07:38:13;;;;;;;34.25;23.17;;;29.40;92.80;;;;;;4740018;29;21118;-67
2023/08/22 07:40:40;;;;;;;30.77;23.77;;;29.70;91.80;;;;;;4780336;29;21575;-67
2023/08/22 07:43:07;;;;;;;29.95;21.55;;;29.70;91.00;;;;;;4754704;29;21815;-67
2023/08/22 07:45:32;;;;;;;32.53;22.02;;;30.00;90.80;;;;;;4717678;29;22043;-67
2023/08/22 07:47:59;;;;;;;30.80;21.02;;;30.30;90.50;;;;;;4716942;29;22370;-67
2023/08/22 07:50:25;;;;;;;27.65;21.98;;;30.40;89.70;;;;;;4748651;29;22161;-67
2023/08/22 07:52:51;;;;;;;27.70;22.20;;;30.80;88.80;;;;;;4826293;29;21909;-68
2023/08/22 07:55:17;;;;;;;28.55;21.55;;;30.30;87.20;;;;;;4864500;29;22122;-68
2023/08/22 07:57:43;;;;;;;27.20;21.92;;;30.80;86.00;;;;;;4920403;28;22012;-68
2023/08/22 08:00:11;;;;;;;31.48;20.58;;;31.40;84.00;;;;;;4961016;28;22150;-68
2023/08/22 08:02:40;;;;;;;34.47;22.05;;;31.50;82.00;;;;;;4948332;28;22741;-67
2023/08/22 08:05:07;;;;;;;29.10;21.55;;;31.70;80.80;;;;;;5009384;28;23550;-68
2023/08/22 08:07:34;;;;;;;33.22;21.05;;;31.90;78.40;;;;;;5026415;28;23878;-68
2023/08/22 08:10:00;;;;;;;29.80;22.35;;;32.00;78.50;;;;;;5030422;28;38432;-68
2023/08/22 08:12:26;;;;;;;29.67;21.08;;;32.10;77.20;;;;;;5013087;28;25100;-68
2023/08/22 08:14:52;;;;;;;31.50;22.15;;;32.40;76.00;;;;;;5010368;28;41601;-69
2023/08/22 08:17:19;;;;;;;30.02;21.80;;;32.60;73.70;;;;;;5007606;28;43062;-68
2023/08/22 08:19:45;;;;;;;31.58;21.45;;;32.50;74.20;;;;;;4996193;28;44495;-68
2023/08/22 08:22:11;;;;;;;28.60;21.60;;;32.80;72.00;;;;;;5001348;28;45490;-64
2023/08/22 08:24:38;;;;;;;33.78;23.30;;;32.40;72.00;;;;;;4972560;28;52350;-69
2023/08/22 08:27:05;;;;;;;31.30;23.65;;;32.60;72.50;;;;;;4980407;28;25001;-68
2023/08/22 08:29:31;;;;;;;34.45;23.55;;;32.80;70.70;;;;;;5008919;28;24851;-69
2023/08/22 08:31:58;;;;;;;28.73;22.30;;;32.90;69.50;;;;;;5011219;28;24854;-68
2023/08/22 08:34:25;;;;;;;35.10;24.13;;;33.00;68.00;;;;;;5006442;28;25024;-69
2023/08/22 08:36:52;;;;;;;32.33;24.15;;;33.20;67.90;;;;;;5004746;28;24901;-69
2023/08/22 08:39:18;;;;;;;38.83;26.40;;;33.60;67.30;;;;;;5000129;28;28105;-69
2023/08/22 08:42:10;;;;;;;46.55;25.73;;;33.40;66.30;;;;;;4992095;28;25019;-68
2023/08/22 08:44:36;;;;;;;41.10;26.20;;;33.50;63.70;;;;;;4932316;28;25165;-69
2023/08/22 08:47:03;;;;;;;50.50;29.25;;;33.70;63.50;;;;;;4960174;28;25019;-69
2023/08/22 08:49:34;;;;;;;31.23;23.48;;;33.90;65.00;;;;;;4962668;28;45681;-70
2023/08/22 08:52:05;;;;;;;32.58;26.02;;;33.90;63.00;;;;;;4973115;28;75028;-68
2023/08/22 08:54:34;;;;;;;35.90;26.67;;;33.90;62.80;;;;;;4975783;28;74937;-69
2023/08/22 08:57:01;;;;;;;;;;;34.20;60.50;;;;;;4962378;28;59355;-69
2023/08/22 08:59:30;;;;;;;39.80;23.52;;;34.30;61.50;;;;;;4962444;28;49696;-69
2023/08/22 09:02:01;;;;;;;38.13;27.13;;;34.00;60.80;;;;;;4958646;28;35082;-69
2023/08/22 09:04:27;;;;;;;41.25;27.25;;;33.80;59.90;;;;;;4967130;28;48895;-70
2023/08/22 09:06:53;;;;;;;31.98;25.08;;;34.10;59.10;;;;;;4983390;28;48863;-69
2023/08/22 09:09:20;;;;;;;33.63;23.13;;;34.20;58.90;;;;;;5014379;28;38108;-69
2023/08/22 09:11:49;;;;;;;40.95;23.95;;;34.40;57.30;;;;;;4978892;28;48944;-69
2023/08/22 09:14:20;;;;;;;33.03;24.48;;;34.30;57.70;;;;;;4988059;28;38782;-69
2023/08/22 09:16:46;;;;;;;33.42;26.85;;;34.00;58.10;;;;;;5015157;28;25021;-70
2023/08/22 09:19:12;;;;;;;35.47;23.52;;;34.40;57.00;;;;;;5005291;28;49008;-70
2023/08/22 09:21:38;;;;;;;33.03;23.80;;;34.70;57.00;;;;;;4983422;28;49033;-70
2023/08/22 09:24:09;;;;;;;31.15;25.00;;;34.30;56.30;;;;;;4995174;28;24983;-69
2023/08/22 09:26:36;;;;;;;31.83;23.55;;;34.40;55.00;;;;;;4991912;28;24990;-69
2023/08/22 09:29:06;;;;;;;29.27;21.73;;;34.90;54.60;;;;;;5000268;28;42151;-70
2023/08/22 09:31:33;;;;;;;;;;;34.80;54.90;;;;;;4999674;28;41805;-70
2023/08/22 09:34:05;;;;;;;33.90;24.15;;;35.20;53.70;;;;;;4985556;28;48812;-70
2023/08/22 09:36:31;;;;;;;53.38;30.38;;;35.70;52.50;;;;;;4983038;28;49328;-70
2023/08/22 09:38:58;;;;;;;159.60;49.42;;;35.90;51.70;;;;;;4984756;28;48783;-70
2023/08/22 09:41:28;;;;;;;113.63;39.45;;;36.20;52.50;;;;;;4975218;28;25085;-69
2023/08/22 09:44:00;;;;;;;38.53;24.65;;;36.30;50.90;;;;;;4954798;28;48830;-70
2023/08/22 09:46:27;;;;;;;27.80;23.05;;;36.70;50.60;;;;;;4956302;28;48798;-70
2023/08/22 09:48:56;;;;;;;26.60;22.52;;;36.60;47.70;;;;;;4962258;28;49680;-70
2023/08/22 09:51:22;;;;;;;25.67;19.70;;;36.70;46.80;;;;;;4980498;28;49203;-69
2023/08/22 09:53:51;;;;;;;27.75;21.38;;;36.90;49.30;;;;;;4995452;28;47196;-70
2023/08/22 09:56:20;;;;;;;42.08;25.30;;;36.20;49.40;;;;;;4967926;28;25014;-70
2023/08/22 09:58:47;;;;;;;30.17;22.30;;;36.50;48.00;;;;;;4942870;28;48768;-70
2023/08/22 10:01:16;;;;;;;30.05;22.45;;;36.90;46.70;;;;;;4927496;28;49645;-70
2023/08/22 10:03:46;;;;;;;29.58;23.67;;;36.80;46.30;;;;;;4909640;28;49926;-69
2023/08/22 10:06:14;;;;;;;28.33;20.48;;;36.60;45.60;;;;;;4970396;28;29374;-70
2023/08/22 10:08:46;;;;;;;30.23;21.17;;;36.80;44.30;;;;;;4984907;28;48643;-69
2023/08/22 10:11:16;;;;;;;26.92;19.10;;;36.60;43.90;;;;;;4980742;28;25384;-69
2023/08/22 10:13:43;;;;;;;26.42;18.20;;;37.20;43.60;;;;;;4937813;28;47762;-70
2023/08/22 10:16:16;;;;;;;35.65;21.42;;;37.30;43.10;;;;;;4926186;28;49446;-70
2023/08/22 10:18:42;;;;;;;27.38;19.15;;;37.80;44.40;;;;;;4901058;28;32760;-70
2023/08/22 10:21:08;;;;;;;23.48;17.45;;;38.00;42.30;;;;;;4920878;28;48862;-70
2023/08/22 10:23:58;;;;;;;19.77;17.67;;;37.60;39.40;;;;;;4915689;28;49206;-70
2023/08/22 10:26:47;;;;;;;19.67;15.70;;;37.50;39.70;;;;;;4921782;28;37513;-70
2023/08/22 10:29:18;;;;;;;23.80;16.77;;;36.50;40.60;;;;;;4878666;28;38498;-70
2023/08/22 10:34:46;;;;;;;20.00;14.95;;;36.60;41.30;;;;;;5152386;27;20138;-69
2023/08/22 10:37:11;;;;;;;19.10;16.80;;;35.90;41.10;;;;;;5064576;27;1435355;-69
2023/08/22 10:39:39;;;;;;;21.15;17.88;;;35.50;43.00;;;;;;5101499;28;20537;-69
2023/08/22 10:42:23;;;;;;;19.10;17.05;;;35.80;42.30;;;;;;5062848;28;20044;-69
2023/08/22 10:44:57;;;;;;;23.50;16.63;;;36.00;42.20;;;;;;5100378;28;20060;-69
2023/08/22 10:47:25;;;;;;;22.02;16.88;;;36.60;42.10;;;;;;5080776;28;20036;-69
2023/08/22 10:49:52;;;;;;;19.38;16.00;;;36.40;41.40;;;;;;5084343;27;20087;-69
2023/08/22 10:52:44;;;;;;;19.55;15.60;;;35.30;42.20;;;;;;5082831;28;20205;-69
2023/08/22 10:55:10;;;;;;;19.20;16.55;;;36.00;43.30;;;;;;5102107;28;20047;-69
2023/08/22 10:57:38;;;;;;;23.88;17.38;;;36.30;40.50;;;;;;5097365;28;20094;-69
2023/08/22 11:02:34;;;;;;;19.33;16.83;;;37.10;43.70;;;;;;5041568;28;20060;-69
2023/08/22 11:05:07;;;;;;;21.83;16.40;;;37.80;39.40;;;;;;5078785;28;20048;-69
2023/08/22 11:07:34;;;;;;;24.25;16.70;;;38.10;38.50;;;;;;5039351;28;20040;-69
2023/08/22 11:10:00;;;;;;;19.98;16.42;;;38.30;39.00;;;;;;5103492;28;20048;-69
2023/08/22 11:12:27;;;;;;;19.70;16.35;;;38.40;37.60;;;;;;5100079;28;20502;-72
2023/08/22 11:14:54;;;;;;;18.27;16.10;;;38.40;36.60;;;;;;5087574;28;20413;-70
2023/08/22 11:17:22;;;;;;;18.77;16.58;;;38.20;39.00;;;;;;5061439;28;20044;-70
2023/08/22 11:19:49;;;;;;;20.13;16.63;;;38.40;36.80;;;;;;5102714;28;20404;-71
2023/08/22 11:22:15;;;;;;;18.20;15.85;;;37.00;38.30;;;;;;5098308;28;20462;-70
2023/08/22 11:24:45;;;;;;;20.05;16.52;;;37.10;39.30;;;;;;5068087;28;20100;-69
2023/08/22 11:27:15;;;;;;;23.48;16.42;;;37.20;38.70;;;;;;5070830;28;20036;-70
2023/08/22 11:29:51;;;;;;;18.95;16.77;;;37.80;37.90;;;;;;5015529;28;20523;-69
2023/08/22 11:32:32;;;;;;;22.55;16.52;;;37.60;36.30;;;;;;5025302;28;21046;-70
2023/08/22 11:35:10;;;;;;;20.80;16.02;;;38.10;37.00;;;;;;5021368;27;20135;-69
2023/08/22 11:37:41;;;;;;;18.27;14.48;;;38.40;35.60;;;;;;4993174;28;20198;-70
2023/08/22 11:40:10;;;;;;;19.75;16.23;;;38.30;36.60;;;;;;4976321;28;20098;-70
2023/08/22 11:42:37;;;;;;;31.20;17.35;;;38.00;37.80;;;;;;5000921;28;20073;-70
2023/08/22 11:45:03;;;;;;;21.02;15.63;;;38.50;36.90;;;;;;5000144;28;20060;-70
2023/08/22 11:47:47;;;;;;;21.33;16.38;;;38.40;36.20;;;;;;5022107;28;20226;-70
2023/08/22 11:50:17;;;;;;;23.23;17.55;;;38.40;37.50;;;;;;5040727;27;20352;-69
2023/08/22 11:52:48;;;;;;;21.17;17.23;;;38.80;36.00;;;;;;5054843;27;20051;-70
2023/08/22 11:55:24;;;;;;;25.15;16.02;;;38.80;35.60;;;;;;5059241;28;20559;-70
2023/08/22 11:57:50;;;;;;;21.95;17.20;;;38.50;35.70;;;;;;5035422;28;20101;-71
2023/08/22 12:00:16;;;;;;;22.25;17.15;;;37.90;36.60;;;;;;5023636;28;20422;-70
2023/08/22 12:02:49;;;;;;;22.92;17.77;;;37.40;37.50;;;;;;5026662;28;20072;-59
2023/08/22 12:05:38;;;;;;;20.75;18.02;;;37.10;38.00;;;;;;5042894;28;20849;-59
2023/08/22 12:08:07;;;;;;;22.70;17.88;;;37.30;38.50;;;;;;5048567;28;22563;-59
2023/08/22 12:10:49;;;;;;;23.42;18.20;;;37.30;38.30;;;;;;5040165;28;20750;-59
2023/08/22 12:13:17;;;;;;;28.95;19.25;;;37.40;37.70;;;;;;5011004;28;20056;-61
2023/08/22 12:15:44;;;;;;;27.02;18.45;;;37.50;36.60;;;;;;5031530;28;20147;-59
2023/08/22 12:18:10;;;;;;;22.98;18.30;;;37.40;37.30;;;;;;4920875;28;20049;-59
2023/08/22 12:20:39;;;;;;;22.60;18.20;;;37.30;37.00;;;;;;4975482;28;20717;-59
2023/08/22 12:23:12;;;;;;;24.23;17.83;;;37.10;36.70;;;;;;4981245;28;21615;-60
2023/08/22 12:25:42;;;;;;;27.42;18.20;;;37.20;38.60;;;;;;5012453;28;20085;-59
2023/08/22 12:28:08;;;;;;;;;;;37.30;37.70;;;;;;5053159;27;20437;-59
2023/08/22 12:30:36;;;;;;;29.90;17.35;;;37.20;37.60;;;;;;5024811;28;19935;-59
2023/08/22 12:33:03;;;;;;;17.08;13.88;;;37.30;36.90;;;;;;5027909;28;20907;-59
2023/08/22 12:35:34;;;;;;;20.52;14.93;;;37.70;36.20;;;;;;5021435;28;20036;-60
2023/08/22 12:38:00;;;;;;;17.08;14.15;;;38.10;35.70;;;;;;5049385;27;20076;-59
2023/08/22 12:40:27;;;;;;;18.17;14.55;;;37.70;35.30;;;;;;5044119;28;20051;-60